createdAt,value
2022-08-14T00:02:10.356Z,21.20
2022-08-14T00:04:42.017Z,21.20
2022-08-14T00:07:14.139Z,21.20
2022-08-14T00:10:02.504Z,21.20
2022-08-14T00:12:33.630Z,21.20
2022-08-14T00:15:07.895Z,21.20
2022-08-14T00:17:47.095Z,21.20
2022-08-14T00:20:24.017Z,21.10
2022-08-14T00:22:58.461Z,21.10
2022-08-14T00:25:41.450Z,21.00
2022-08-14T00:28:15.333Z,21.00
2022-08-14T00:30:46.479Z,21.00
2022-08-14T00:33:16.442Z,20.90
2022-08-14T00:36:37.490Z,20.90
2022-08-14T00:38:34.745Z,20.90
2022-08-14T00:41:04.604Z,20.80
2022-08-14T00:43:32.812Z,20.80
2022-08-14T00:46:05.074Z,20.80
2022-08-14T00:48:36.707Z,20.70
2022-08-14T00:51:07.026Z,20.70
2022-08-14T00:53:35.104Z,20.70
2022-08-14T00:56:06.879Z,20.70
2022-08-14T00:58:35.386Z,20.70
2022-08-14T01:01:09.158Z,20.80
2022-08-14T01:03:42.289Z,20.70
2022-08-14T01:06:12.198Z,20.70
2022-08-14T01:08:51.115Z,20.70
2022-08-14T01:11:31.827Z,20.60
2022-08-14T01:14:25.453Z,20.70
2022-08-14T01:16:55.582Z,20.70
2022-08-14T01:19:43.370Z,20.70
2022-08-14T01:22:13.412Z,20.70
2022-08-14T01:24:46.994Z,20.70
2022-08-14T01:27:18.172Z,20.70
2022-08-14T01:30:03.133Z,20.70
2022-08-14T01:32:37.599Z,20.70
2022-08-14T01:35:21.297Z,20.60
2022-08-14T01:38:00.389Z,20.60
2022-08-14T01:40:36.402Z,20.50
2022-08-14T01:43:18.688Z,20.50
2022-08-14T01:45:57.859Z,20.50
2022-08-14T01:48:44.428Z,20.40
2022-08-14T01:51:19.962Z,20.40
2022-08-14T01:53:54.719Z,20.40
2022-08-14T01:56:37.182Z,20.40
2022-08-14T01:59:09.796Z,20.40
2022-08-14T02:01:42.013Z,20.40
2022-08-14T02:04:56.295Z,20.40
2022-08-14T02:07:15.724Z,20.50
2022-08-14T02:09:45.392Z,20.40
2022-08-14T02:12:29.099Z,20.40
2022-08-14T02:15:00.546Z,20.30
2022-08-14T02:17:30.878Z,20.40
2022-08-14T02:19:59.231Z,20.30
2022-08-14T02:22:47.299Z,20.30
2022-08-14T02:25:16.908Z,20.30
2022-08-14T02:28:25.075Z,20.30
2022-08-14T02:30:34.834Z,20.30
2022-08-14T02:33:07.475Z,20.30
2022-08-14T02:35:40.712Z,20.30
2022-08-14T02:38:11.708Z,20.30
2022-08-14T02:40:59.241Z,20.30
2022-08-14T02:43:36.727Z,20.30
2022-08-14T02:46:20.436Z,20.40
2022-08-14T02:49:04.654Z,20.30
2022-08-14T02:51:34.420Z,20.30
2022-08-14T02:54:03.727Z,20.30
2022-08-14T02:57:16.655Z,20.30
2022-08-14T02:59:28.821Z,20.30
2022-08-14T03:01:57.492Z,20.30
2022-08-14T03:04:28.571Z,20.30
2022-08-14T03:06:57.925Z,20.30
2022-08-14T03:09:41.998Z,20.20
2022-08-14T03:12:31.610Z,20.10
2022-08-14T03:15:03.752Z,20.10
2022-08-14T03:17:41.270Z,20.20
2022-08-14T03:20:22.305Z,20.10
2022-08-14T03:22:51.592Z,20.10
2022-08-14T03:25:21.848Z,20.10
2022-08-14T03:27:58.734Z,20.10
2022-08-14T03:30:39.460Z,20.10
2022-08-14T03:33:10.293Z,20.10
2022-08-14T03:36:00.126Z,20.10
2022-08-14T03:39:15.269Z,20.10
2022-08-14T03:41:17.194Z,20.10
2022-08-14T03:43:46.705Z,20.00
2022-08-14T03:46:51.780Z,20.00
2022-08-14T03:49:16.478Z,20.00
2022-08-14T03:51:57.461Z,20.00
2022-08-14T03:58:23.709Z,19.90
2022-08-14T04:01:02.993Z,19.80
2022-08-14T04:03:31.077Z,19.70
2022-08-14T04:05:59.082Z,19.70
2022-08-14T04:08:30.396Z,19.60
2022-08-14T04:11:01.493Z,19.70
2022-08-14T04:13:31.862Z,19.70
2022-08-14T04:16:05.048Z,19.80
2022-08-14T04:18:35.041Z,19.80
2022-08-14T04:21:03.994Z,19.80
2022-08-14T04:23:33.261Z,19.80
2022-08-14T04:26:02.785Z,19.80
2022-08-14T04:29:08.307Z,19.80
2022-08-14T04:32:56.641Z,19.80
2022-08-14T04:34:16.888Z,19.90
2022-08-14T04:37:02.813Z,19.90
2022-08-14T04:39:57.324Z,19.90
2022-08-14T04:42:47.668Z,20.00
2022-08-14T04:45:21.137Z,20.00
2022-08-14T04:48:09.822Z,20.00
2022-08-14T04:50:44.891Z,20.10
2022-08-14T04:53:14.718Z,20.10
2022-08-14T04:55:43.302Z,20.10
2022-08-14T04:58:21.809Z,20.20
2022-08-14T05:00:59.508Z,20.20
2022-08-14T05:03:29.931Z,20.20
2022-08-14T05:06:01.120Z,20.40
2022-08-14T05:08:32.313Z,20.40
2022-08-14T05:13:11.918Z,20.50
2022-08-14T05:15:14.781Z,20.70
2022-08-14T05:17:54.045Z,20.80
2022-08-14T05:21:58.291Z,20.90
2022-08-14T05:23:24.406Z,21.10
2022-08-14T05:25:55.120Z,21.10
2022-08-14T05:28:24.161Z,21.30
2022-08-14T05:30:53.241Z,21.40
2022-08-14T05:33:24.402Z,21.50
2022-08-14T05:35:54.414Z,21.60
2022-08-14T05:38:31.927Z,21.80
2022-08-14T05:41:06.470Z,21.90
2022-08-14T05:43:41.222Z,22.00
2022-08-14T05:46:11.445Z,22.10
2022-08-14T05:48:43.897Z,22.20
2022-08-14T05:51:14.857Z,22.20
2022-08-14T05:53:43.607Z,22.20
2022-08-14T05:56:29.066Z,22.30
2022-08-14T05:58:57.291Z,22.50
2022-08-14T06:01:31.405Z,22.70
2022-08-14T06:04:00.187Z,22.80
2022-08-14T06:06:32.618Z,23.00
2022-08-14T06:09:04.703Z,23.20
2022-08-14T06:11:32.745Z,23.40
2022-08-14T06:14:00.804Z,23.60
2022-08-14T06:16:31.654Z,23.80
2022-08-14T06:19:01.219Z,24.10
2022-08-14T06:21:30.614Z,24.20
2022-08-14T06:24:00.951Z,24.30
2022-08-14T06:26:30.213Z,24.50
2022-08-14T06:28:58.764Z,24.60
2022-08-14T06:31:27.526Z,25.00
2022-08-14T06:35:11.219Z,25.40
2022-08-14T06:36:45.177Z,25.70
2022-08-14T06:39:14.361Z,25.90
2022-08-14T06:41:58.708Z,25.90
2022-08-14T06:44:30.360Z,26.00
2022-08-14T06:47:00.447Z,26.30
2022-08-14T06:49:30.428Z,26.20
2022-08-14T06:52:00.823Z,26.50
2022-08-14T06:54:31.167Z,26.50
2022-08-14T06:56:59.992Z,26.70
2022-08-14T06:59:28.221Z,26.60
2022-08-14T07:02:17.726Z,27.00
2022-08-14T07:05:05.119Z,26.80
2022-08-14T07:07:39.339Z,26.90
2022-08-14T07:10:07.951Z,26.90
2022-08-14T07:13:01.083Z,27.30
2022-08-14T07:15:33.715Z,27.40
2022-08-14T07:18:03.083Z,27.60
2022-08-14T07:20:32.104Z,27.70
2022-08-14T07:23:07.781Z,27.80
2022-08-14T07:25:37.502Z,28.10
2022-08-14T07:28:12.757Z,28.30
2022-08-14T07:30:51.191Z,28.10
2022-08-14T07:33:20.846Z,28.50
2022-08-14T07:35:58.195Z,29.10
2022-08-14T07:38:34.079Z,29.00
2022-08-14T07:41:06.870Z,29.20
2022-08-14T07:43:52.966Z,29.30
2022-08-14T07:46:29.373Z,29.40
2022-08-14T07:48:58.947Z,29.50
2022-08-14T07:51:36.535Z,30.10
2022-08-14T07:54:11.494Z,30.00
2022-08-14T07:56:48.282Z,30.40
2022-08-14T07:59:20.718Z,30.70
2022-08-14T08:02:08.774Z,31.10
2022-08-14T08:04:47.506Z,31.40
2022-08-14T08:07:17.602Z,30.90
2022-08-14T08:09:53.261Z,31.10
2022-08-14T08:12:26.200Z,30.80
2022-08-14T08:15:02.900Z,31.00
2022-08-14T08:17:38.919Z,31.30
2022-08-14T08:20:16.062Z,31.70
2022-08-14T08:22:49.713Z,32.00
2022-08-14T08:25:19.952Z,32.10
2022-08-14T08:27:58.718Z,32.40
2022-08-14T08:30:27.114Z,32.50
2022-08-14T08:32:58.135Z,32.70
2022-08-14T08:36:18.950Z,32.80
2022-08-14T08:39:18.489Z,33.00
2022-08-14T08:41:49.282Z,33.10
2022-08-14T08:44:31.563Z,33.20
2022-08-14T08:47:05.674Z,32.90
2022-08-14T08:49:58.971Z,33.10
2022-08-14T08:52:42.359Z,33.20
2022-08-14T08:55:18.098Z,33.10
2022-08-14T08:57:48.720Z,33.30
2022-08-14T09:00:24.948Z,33.00
2022-08-14T09:02:57.509Z,33.30
2022-08-14T09:05:26.332Z,33.00
2022-08-14T09:11:41.919Z,33.20
2022-08-14T09:14:11.369Z,33.10
2022-08-14T09:16:39.433Z,33.20
2022-08-14T09:19:07.921Z,33.60
2022-08-14T09:21:37.293Z,33.70
2022-08-14T09:24:26.542Z,33.80
2022-08-14T09:26:58.938Z,33.90
2022-08-14T09:29:28.687Z,33.90
2022-08-14T09:31:58.200Z,33.50
2022-08-14T09:34:47.438Z,33.20
2022-08-14T09:37:35.417Z,33.70
2022-08-14T09:40:10.115Z,33.90
2022-08-14T09:42:51.277Z,34.30
2022-08-14T09:45:23.893Z,34.30
2022-08-14T09:47:52.801Z,34.50
2022-08-14T09:50:25.767Z,34.30
2022-08-14T09:52:56.722Z,33.80
2022-08-14T09:55:26.301Z,33.50
2022-08-14T09:58:19.228Z,33.10
2022-08-14T10:00:50.222Z,32.80
2022-08-14T10:03:30.362Z,32.90
2022-08-14T10:06:09.387Z,32.90
2022-08-14T10:08:51.230Z,32.60
2022-08-14T10:11:23.595Z,33.00
2022-08-14T10:13:54.491Z,33.30
2022-08-14T10:16:27.574Z,33.70
2022-08-14T10:19:09.423Z,33.70
2022-08-14T10:21:38.914Z,34.20
2022-08-14T10:24:36.180Z,34.50
2022-08-14T10:27:06.562Z,34.50
2022-08-14T10:29:36.055Z,34.90
2022-08-14T10:32:51.920Z,34.80
2022-08-14T10:35:23.201Z,35.20
2022-08-14T10:38:01.674Z,35.70
2022-08-14T10:40:44.197Z,35.90
2022-08-14T10:43:22.893Z,36.40
2022-08-14T10:46:03.260Z,36.70
2022-08-14T10:48:57.137Z,36.90
2022-08-14T10:51:30.286Z,37.10
2022-08-14T10:54:26.032Z,37.00
2022-08-14T10:56:57.753Z,36.20
2022-08-14T10:59:30.967Z,35.50
2022-08-14T11:02:03.558Z,35.50
2022-08-14T11:04:32.124Z,35.90
2022-08-14T11:07:02.716Z,36.50
2022-08-14T11:09:34.133Z,36.60
2022-08-14T11:12:35.132Z,36.60
2022-08-14T11:14:59.273Z,36.80
2022-08-14T11:17:32.048Z,36.90
2022-08-14T11:20:01.431Z,37.00
2022-08-14T11:22:56.232Z,36.90
2022-08-14T11:25:21.378Z,36.80
2022-08-14T11:27:49.652Z,36.80
2022-08-14T11:30:50.076Z,37.40
2022-08-14T11:33:09.192Z,37.60
2022-08-14T11:35:47.210Z,37.90
2022-08-14T11:38:18.142Z,37.80
2022-08-14T11:40:47.550Z,37.50
2022-08-14T11:43:16.355Z,36.50
2022-08-14T11:45:48.370Z,36.60
2022-08-14T11:49:02.261Z,35.90
2022-08-14T11:51:05.499Z,35.90
2022-08-14T11:53:37.520Z,35.70
2022-08-14T11:56:11.116Z,35.60
2022-08-14T11:58:39.527Z,35.80
2022-08-14T12:01:09.510Z,35.80
2022-08-14T12:03:51.570Z,35.60
2022-08-14T12:06:29.460Z,36.40
2022-08-14T12:09:15.034Z,36.60
2022-08-14T12:11:47.409Z,36.50
2022-08-14T12:14:34.600Z,36.50
2022-08-14T12:17:11.699Z,36.50
2022-08-14T12:19:51.230Z,36.40
2022-08-14T12:22:34.173Z,36.70
2022-08-14T12:25:10.018Z,36.10
2022-08-14T12:27:41.678Z,35.90
2022-08-14T12:30:15.067Z,35.90
2022-08-14T12:32:49.352Z,35.60
2022-08-14T12:35:18.956Z,35.60
2022-08-14T12:37:49.388Z,35.30
2022-08-14T12:40:24.399Z,35.40
2022-08-14T12:42:56.517Z,34.60
2022-08-14T12:45:31.662Z,34.60
2022-08-14T12:48:01.932Z,34.90
2022-08-14T12:50:52.201Z,35.20
2022-08-14T12:53:21.119Z,35.20
2022-08-14T12:56:22.260Z,35.30
2022-08-14T12:58:51.754Z,35.00
2022-08-14T13:01:22.234Z,35.00
2022-08-14T13:03:51.852Z,35.00
2022-08-14T13:06:20.554Z,35.00
2022-08-14T13:08:53.063Z,34.30
2022-08-14T13:11:23.757Z,34.70
2022-08-14T13:13:52.655Z,35.20
2022-08-14T13:16:33.859Z,34.90
2022-08-14T13:19:11.041Z,34.80
2022-08-14T13:21:58.789Z,34.50
2022-08-14T13:24:28.054Z,34.80
2022-08-14T13:26:59.324Z,34.90
2022-08-14T13:29:29.654Z,34.80
2022-08-14T13:31:59.489Z,34.80
2022-08-14T13:34:29.472Z,34.80
2022-08-14T13:37:04.220Z,34.90
2022-08-14T13:39:36.291Z,34.50
2022-08-14T13:42:13.195Z,34.60
2022-08-14T13:44:42.787Z,34.70
2022-08-14T13:47:12.200Z,34.90
2022-08-14T13:49:57.745Z,35.00
2022-08-14T13:52:59.159Z,35.10
2022-08-14T13:55:16.531Z,35.10
2022-08-14T13:57:49.724Z,34.50
2022-08-14T14:00:33.007Z,34.50
2022-08-14T14:03:05.659Z,34.70
2022-08-14T14:05:52.835Z,34.90
2022-08-14T14:08:46.995Z,34.90
2022-08-14T14:11:10.576Z,34.90
2022-08-14T14:13:42.067Z,34.60
2022-08-14T14:16:15.559Z,34.40
2022-08-14T14:18:56.331Z,34.50
2022-08-14T14:21:28.756Z,34.50
2022-08-14T14:23:57.536Z,34.50
2022-08-14T14:26:26.978Z,34.50
2022-08-14T14:28:57.482Z,34.30
2022-08-14T14:31:29.591Z,34.30
2022-08-14T14:34:00.269Z,34.30
2022-08-14T14:36:29.229Z,34.30
2022-08-14T14:38:58.787Z,34.20
2022-08-14T14:41:38.283Z,34.30
2022-08-14T14:44:09.226Z,34.30
2022-08-14T14:46:41.607Z,33.70
2022-08-14T14:49:14.880Z,33.60
2022-08-14T14:51:46.910Z,33.60
2022-08-14T14:54:30.286Z,33.90
2022-08-14T14:57:02.144Z,34.10
2022-08-14T14:59:33.261Z,34.00
2022-08-14T15:02:06.391Z,33.70
2022-08-14T15:04:37.839Z,33.80
2022-08-14T15:07:06.428Z,34.00
2022-08-14T15:09:34.855Z,34.10
2022-08-14T15:12:16.030Z,34.00
2022-08-14T15:14:54.614Z,34.10
2022-08-14T15:17:28.395Z,34.20
2022-08-14T15:20:04.947Z,34.30
2022-08-14T15:22:33.004Z,34.40
2022-08-14T15:25:01.535Z,34.50
2022-08-14T15:27:31.582Z,34.70
2022-08-14T15:30:01.655Z,34.80
2022-08-14T15:32:30.717Z,34.80
2022-08-14T15:35:00.658Z,34.70
2022-08-14T15:37:33.757Z,34.50
2022-08-14T15:40:02.245Z,34.60
2022-08-14T15:42:30.515Z,34.60
2022-08-14T15:45:01.437Z,34.80
2022-08-14T15:47:33.159Z,34.90
2022-08-14T15:50:03.088Z,34.80
2022-08-14T15:52:34.836Z,34.60
2022-08-14T15:55:05.290Z,34.80
2022-08-14T15:57:34.007Z,34.70
2022-08-14T16:00:40.702Z,34.20
2022-08-14T16:03:11.655Z,33.70
2022-08-14T16:05:39.894Z,33.30
2022-08-14T16:08:26.644Z,33.10
2022-08-14T16:10:57.276Z,33.00
2022-08-14T16:13:41.293Z,32.90
2022-08-14T16:16:34.572Z,33.00
2022-08-14T16:19:07.266Z,32.90
2022-08-14T16:21:37.628Z,32.70
2022-08-14T16:24:06.421Z,32.60
2022-08-14T16:26:34.944Z,32.60
2022-08-14T16:29:07.457Z,32.30
2022-08-14T16:31:36.809Z,32.20
2022-08-14T16:34:44.017Z,32.10
2022-08-14T16:36:55.102Z,32.00
2022-08-14T16:39:23.283Z,31.90
2022-08-14T16:41:52.517Z,31.90
2022-08-14T16:44:22.089Z,31.60
2022-08-14T16:47:02.293Z,31.50
2022-08-14T16:50:02.941Z,31.30
2022-08-14T16:52:25.990Z,31.20
2022-08-14T16:55:11.174Z,31.20
2022-08-14T16:57:48.024Z,31.10
2022-08-14T17:00:28.842Z,31.00
2022-08-14T17:03:11.442Z,31.00
2022-08-14T17:05:43.503Z,30.90
2022-08-14T17:08:41.437Z,30.70
2022-08-14T17:11:10.547Z,30.60
2022-08-14T17:13:59.738Z,30.50
2022-08-14T17:16:31.044Z,30.40
2022-08-14T17:19:01.770Z,30.30
2022-08-14T17:21:37.333Z,30.20
2022-08-14T17:26:55.937Z,30.00
2022-08-14T17:29:29.531Z,29.80
2022-08-14T17:32:02.221Z,29.70
2022-08-14T17:34:45.117Z,29.60
2022-08-14T17:37:26.372Z,29.50
2022-08-14T17:40:02.162Z,29.40
2022-08-14T17:42:58.999Z,29.30
2022-08-14T17:45:46.970Z,29.20
2022-08-14T17:49:15.130Z,29.00
2022-08-14T17:51:23.733Z,29.00
2022-08-14T17:54:02.914Z,28.80
2022-08-14T17:56:32.443Z,28.80
2022-08-14T17:59:02.452Z,28.60
2022-08-14T18:01:35.647Z,28.50
2022-08-14T18:04:05.530Z,28.40
2022-08-14T18:06:39.482Z,28.20
2022-08-14T18:09:25.051Z,28.10
2022-08-14T18:11:55.212Z,28.00
2022-08-14T18:14:32.309Z,27.80
2022-08-14T18:17:02.325Z,27.80
2022-08-14T18:19:34.545Z,27.70
2022-08-14T18:22:05.803Z,27.60
2022-08-14T18:24:55.207Z,27.60
2022-08-14T18:27:24.060Z,27.50
2022-08-14T18:29:55.666Z,27.30
2022-08-14T18:32:46.958Z,27.20
2022-08-14T18:35:16.167Z,27.20
2022-08-14T18:37:55.547Z,27.10
2022-08-14T18:40:34.756Z,27.00
2022-08-14T18:43:04.019Z,27.00
2022-08-14T18:45:33.087Z,26.80
2022-08-14T18:48:28.664Z,26.80
2022-08-14T18:51:15.057Z,26.70
2022-08-14T18:53:55.803Z,26.60
2022-08-14T18:56:58.978Z,26.50
2022-08-14T18:59:36.219Z,26.50
2022-08-14T19:02:43.116Z,26.40
2022-08-14T19:05:11.638Z,26.30
2022-08-14T19:07:41.022Z,26.30
2022-08-14T19:10:17.134Z,26.30
2022-08-14T19:13:12.320Z,26.30
2022-08-14T19:15:42.694Z,26.30
2022-08-14T19:18:26.540Z,26.20
2022-08-14T19:20:58.195Z,26.10
2022-08-14T19:23:42.316Z,26.10
2022-08-14T19:26:35.578Z,26.10
2022-08-14T19:29:38.224Z,26.00
2022-08-14T19:32:39.775Z,25.90
2022-08-14T19:35:48.703Z,25.90
2022-08-14T19:38:53.901Z,25.90
2022-08-14T19:41:29.615Z,25.70
2022-08-14T19:44:10.289Z,25.80
2022-08-14T19:46:59.788Z,25.60
2022-08-14T19:50:07.857Z,25.60
2022-08-14T19:52:22.356Z,25.50
2022-08-14T19:54:51.511Z,25.50
2022-08-14T19:57:21.419Z,25.40
2022-08-14T19:59:57.855Z,25.40
2022-08-14T20:02:29.997Z,25.40
2022-08-14T20:04:59.572Z,25.30
2022-08-14T20:07:58.843Z,25.30
2022-08-14T20:11:02.961Z,25.30
2022-08-14T20:13:15.463Z,25.20
2022-08-14T20:15:52.088Z,25.20
2022-08-14T20:18:49.350Z,25.10
2022-08-14T20:21:15.949Z,25.10
2022-08-14T20:23:44.012Z,25.10
2022-08-14T20:26:31.814Z,25.00
2022-08-14T20:29:04.752Z,25.00
2022-08-14T20:31:37.239Z,24.90
2022-08-14T20:34:18.696Z,24.90
2022-08-14T20:37:02.956Z,24.90
2022-08-14T20:39:34.403Z,24.80
2022-08-14T20:42:25.190Z,24.80
2022-08-14T20:45:13.319Z,24.70
2022-08-14T20:47:48.352Z,24.70
2022-08-14T20:50:28.679Z,24.70
2022-08-14T20:52:57.639Z,24.60
2022-08-14T20:55:29.320Z,24.50
2022-08-14T20:57:59.059Z,24.50
2022-08-14T21:00:36.896Z,24.50
2022-08-14T21:03:29.872Z,24.50
2022-08-14T21:05:58.474Z,24.40
2022-08-14T21:08:26.836Z,24.40
2022-08-14T21:10:56.790Z,24.40
2022-08-14T21:14:08.894Z,24.30
2022-08-14T21:16:34.739Z,24.30
2022-08-14T21:19:03.905Z,24.30
2022-08-14T21:21:40.512Z,24.30
2022-08-14T21:24:40.017Z,24.30
2022-08-14T21:27:11.975Z,24.30
2022-08-14T21:29:54.323Z,24.10
2022-08-14T21:32:35.245Z,24.20
2022-08-14T21:35:08.657Z,24.10
2022-08-14T21:37:46.021Z,24.10
2022-08-14T21:40:29.707Z,24.10
2022-08-14T21:43:04.957Z,24.10
2022-08-14T21:45:35.333Z,24.10
2022-08-14T21:48:10.436Z,24.00
2022-08-14T21:51:02.040Z,23.90
2022-08-14T21:53:30.901Z,23.90
2022-08-14T21:55:59.319Z,23.90
2022-08-14T21:58:52.364Z,23.80
2022-08-14T22:01:19.404Z,23.80
2022-08-14T22:03:55.019Z,23.80
2022-08-14T22:06:29.128Z,23.80
2022-08-14T22:08:58.167Z,23.80
2022-08-14T22:11:27.286Z,23.70
2022-08-14T22:13:56.077Z,23.70
2022-08-14T22:17:00.076Z,23.70
2022-08-14T22:19:17.053Z,23.60
2022-08-14T22:21:49.071Z,23.50
2022-08-14T22:24:25.932Z,23.50
2022-08-14T22:27:07.286Z,23.50
2022-08-14T22:29:36.042Z,23.50
2022-08-14T22:32:07.034Z,23.50
2022-08-14T22:34:35.533Z,23.40
2022-08-14T22:37:10.287Z,23.40
2022-08-14T22:40:15.325Z,23.40
2022-08-14T22:42:26.799Z,23.30
2022-08-14T22:45:03.934Z,23.20
2022-08-14T22:47:40.268Z,23.20
2022-08-14T22:50:31.049Z,23.20
2022-08-14T22:53:00.420Z,23.20
2022-08-14T22:55:28.560Z,23.20
2022-08-14T22:57:56.624Z,23.10
2022-08-14T23:00:30.200Z,23.10
2022-08-14T23:03:01.501Z,23.10
2022-08-14T23:05:39.699Z,23.10
2022-08-14T23:08:56.352Z,23.00
2022-08-14T23:11:03.104Z,23.00
2022-08-14T23:13:31.230Z,22.90
2022-08-14T23:15:59.322Z,22.90
2022-08-14T23:18:29.567Z,22.90
2022-08-14T23:20:58.212Z,22.90
2022-08-14T23:23:27.661Z,22.80
2022-08-14T23:26:00.101Z,22.80
2022-08-14T23:28:34.820Z,22.70
2022-08-14T23:31:34.173Z,22.70
2022-08-14T23:34:07.172Z,22.60
2022-08-14T23:36:37.513Z,22.60
2022-08-14T23:39:29.445Z,22.50
2022-08-14T23:42:02.514Z,22.50
2022-08-14T23:44:35.380Z,22.50
2022-08-14T23:47:10.432Z,22.40
2022-08-14T23:49:59.871Z,22.40
2022-08-14T23:53:05.975Z,22.30
2022-08-14T23:55:18.280Z,22.30
2022-08-14T23:57:57.860Z,22.30
